Погода Кармуна неделю

Рио-де-Жанейро, Бразилия

20 - 26 июля
  • 20июля
    Сегодня
    +10°
    +25°
    Практически безоблачно
    ВремяПогодаТемператураВлажностьДавлениеВетер, м/сВероятность осадков
    00:00Практически безоблачно+13°C93 %732 мм0.7 м/с5 %
    03:00Ясно и безоблачно+13°C92 %732 мм1.1 м/с5 %
    06:00Ясно и безоблачно+12°C93 %732 мм1.1 м/с5 %
    09:00Практически безоблачно+18°C76 %733 мм1.0 м/с5 %
    12:00Небольшая облачность+23°C58 %733 мм1.3 м/с3 %
    15:00Практически безоблачно+24°C50 %731 мм1.5 м/с5 %
    18:00Ясно и безоблачно+20°C61 %731 мм0.5 м/с5 %
    21:00Ясно и безоблачно+15°C84 %731 мм1.4 м/с5 %
  • 21июля
    Воскресенье
    +13°
    +25°
    Ясно и безоблачно
    ВремяПогодаТемператураВлажностьДавлениеВетер, м/сВероятность осадков
    00:00Ясно и безоблачно+13°C90 %732 мм0.7 м/с5 %
    03:00Практически безоблачно+11°C95 %731 мм1.1 м/с5 %
    06:00Ясно и безоблачно+11°C92 %731 мм1.0 м/с5 %
    09:00Ясно и безоблачно+18°C71 %733 мм0.5 м/с5 %
    12:00Ясно и безоблачно+24°C54 %733 мм1.0 м/с5 %
    15:00Ясно и безоблачно+25°C44 %731 мм1.6 м/с5 %
    18:00Ясно и безоблачно+20°C61 %731 мм1.7 м/с5 %
    21:00Ясно и безоблачно+16°C80 %731 мм1.4 м/с5 %
  • 22июля
    Понедельник
    +12°
    +26°
    Ясно и безоблачно
    ВремяПогодаТемператураВлажностьДавлениеВетер, м/сВероятность осадков
    00:00Ясно и безоблачно+14°C83 %732 мм0.6 м/с5 %
    03:00Практически безоблачно+14°C84 %731 мм0.9 м/с5 %
    06:00Облачно с прояснениями+15°C79 %731 мм0.8 м/с2 %
    09:00Облачно с прояснениями+19°C82 %733 мм0.7 м/с4 %
    12:00Практически безоблачно+23°C64 %732 мм1.4 м/с3 %
    15:00Ясно и безоблачно+26°C53 %731 мм0.7 м/с5 %
    18:00Ясно и безоблачно+20°C67 %731 мм0.8 м/с5 %
    21:00Ясно и безоблачно+16°C87 %731 мм1.2 м/с5 %
  • 23июля
    Вторник
    +10°
    +27°
    Ясно и безоблачно
    ВремяПогодаТемператураВлажностьДавлениеВетер, м/сВероятность осадков
    00:00Ясно и безоблачно+15°C90 %732 мм0.8 м/с5 %
    03:00Ясно и безоблачно+13°C91 %731 мм0.9 м/с5 %
    06:00Ясно и безоблачно+12°C93 %732 мм1.1 м/с5 %
    09:00Ясно и безоблачно+20°C69 %734 мм0.7 м/с5 %
    12:00Практически безоблачно+26°C51 %733 мм1.8 м/с4 %
    15:00Ясно и безоблачно+26°C46 %732 мм1.9 м/с5 %
    18:00Ясно и безоблачно+22°C53 %732 мм0.5 м/с5 %
    21:00Ясно и безоблачно+16°C88 %733 мм1.9 м/с4 %
Мы используем cookies
Соглашаюсь